Terminal Aerodrome Forecast
Issued by NWS

Home | Current Version | Previous Version | Text Only | Print | Product List | Glossary On
Versions: 1 2 3 4 5 6 7 8 9 10 11 12 13 14
000
FTUS43 KLSX 212100 AAA
TAFSUS
TAF AMD
KSUS 212116Z 2121/2218 12012KT P6SM BKN040 BKN250
     FM220000 16010KT P6SM OVC028
     FM220200 18008KT P6SM VCSH OVC025
     FM220500 19010KT P6SM OVC020 WS020/21045KT
     FM221400 19012KT P6SM VCSH SCT025 OVC035=

USA.gov is the U.S. government's official web portal to all federal, state and local government web resources and services.